sensor_id;sensor_type;location;lat;lon;timestamp;pressure;altitude;pressure_sealevel;temperature;humidity
50310;BME280;36207;51.850;21.698;2022-12-18T00:01:49;101181.70;;;-4.93;79.67
50310;BME280;36207;51.850;21.698;2022-12-18T00:04:21;101184.41;;;-4.90;79.52
50310;BME280;36207;51.850;21.698;2022-12-18T00:06:48;101185.70;;;-4.92;79.64
50310;BME280;36207;51.850;21.698;2022-12-18T00:09:14;101191.89;;;-4.96;79.53
50310;BME280;36207;51.850;21.698;2022-12-18T00:11:41;101197.08;;;-5.01;79.48
50310;BME280;36207;51.850;21.698;2022-12-18T00:14:09;101196.40;;;-5.06;79.62
50310;BME280;36207;51.850;21.698;2022-12-18T00:16:36;101201.95;;;-5.06;79.83
50310;BME280;36207;51.850;21.698;2022-12-18T00:19:03;101205.91;;;-5.05;79.86
50310;BME280;36207;51.850;21.698;2022-12-18T00:21:31;101208.22;;;-5.02;79.95
50310;BME280;36207;51.850;21.698;2022-12-18T00:23:59;101206.33;;;-4.97;79.77
50310;BME280;36207;51.850;21.698;2022-12-18T00:26:30;101208.20;;;-4.96;79.86
50310;BME280;36207;51.850;21.698;2022-12-18T00:29:02;101208.98;;;-4.93;79.86
50310;BME280;36207;51.850;21.698;2022-12-18T00:31:30;101216.10;;;-4.98;79.50
50310;BME280;36207;51.850;21.698;2022-12-18T00:33:57;101216.71;;;-5.01;79.66
50310;BME280;36207;51.850;21.698;2022-12-18T00:36:29;101218.34;;;-4.98;79.89
50310;BME280;36207;51.850;21.698;2022-12-18T00:38:56;101222.29;;;-4.97;79.97
50310;BME280;36207;51.850;21.698;2022-12-18T00:41:24;101224.09;;;-4.93;79.96
50310;BME280;36207;51.850;21.698;2022-12-18T00:44:12;101228.63;;;-4.88;79.99
50310;BME280;36207;51.850;21.698;2022-12-18T00:46:38;101235.79;;;-4.84;79.85
50310;BME280;36207;51.850;21.698;2022-12-18T00:49:05;101235.57;;;-4.83;79.60
50310;BME280;36207;51.850;21.698;2022-12-18T00:51:32;101236.31;;;-4.85;79.39
50310;BME280;36207;51.850;21.698;2022-12-18T00:53:58;101239.52;;;-4.86;79.45
50310;BME280;36207;51.850;21.698;2022-12-18T00:56:25;101243.77;;;-4.84;79.48
50310;BME280;36207;51.850;21.698;2022-12-18T00:58:51;101243.30;;;-4.80;79.44
50310;BME280;36207;51.850;21.698;2022-12-18T01:01:18;101253.33;;;-4.79;79.48
50310;BME280;36207;51.850;21.698;2022-12-18T01:03:44;101255.79;;;-4.80;79.35
50310;BME280;36207;51.850;21.698;2022-12-18T01:06:15;101264.34;;;-4.86;79.09
50310;BME280;36207;51.850;21.698;2022-12-18T01:08:42;101265.70;;;-4.96;79.04
50310;BME280;36207;51.850;21.698;2022-12-18T01:11:14;101263.02;;;-5.05;79.17
50310;BME280;36207;51.850;21.698;2022-12-18T01:13:41;101264.69;;;-5.07;79.28
50310;BME280;36207;51.850;21.698;2022-12-18T01:16:07;101265.37;;;-5.07;79.27
50310;BME280;36207;51.850;21.698;2022-12-18T01:18:35;101267.36;;;-5.09;79.22
50310;BME280;36207;51.850;21.698;2022-12-18T01:21:09;101268.17;;;-5.13;79.20
50310;BME280;36207;51.850;21.698;2022-12-18T01:23:36;101272.87;;;-5.14;79.22
50310;BME280;36207;51.850;21.698;2022-12-18T01:26:08;101279.98;;;-5.13;79.33
50310;BME280;36207;51.850;21.698;2022-12-18T01:28:35;101287.73;;;-5.11;79.37
50310;BME280;36207;51.850;21.698;2022-12-18T01:33:40;101293.66;;;-5.07;79.37
50310;BME280;36207;51.850;21.698;2022-12-18T01:36:08;101289.90;;;-5.03;79.38
50310;BME280;36207;51.850;21.698;2022-12-18T01:38:34;101295.58;;;-5.02;79.33
50310;BME280;36207;51.850;21.698;2022-12-18T01:41:01;101294.38;;;-5.02;79.28
50310;BME280;36207;51.850;21.698;2022-12-18T01:46:12;101291.48;;;-5.04;79.31
50310;BME280;36207;51.850;21.698;2022-12-18T01:48:40;101289.73;;;-4.98;79.39
50310;BME280;36207;51.850;21.698;2022-12-18T01:51:08;101298.55;;;-4.91;79.36
50310;BME280;36207;51.850;21.698;2022-12-18T01:53:36;101300.17;;;-4.88;79.20
50310;BME280;36207;51.850;21.698;2022-12-18T01:56:03;101302.33;;;-4.90;78.98
50310;BME280;36207;51.850;21.698;2022-12-18T02:01:09;101317.95;;;-4.95;78.86
50310;BME280;36207;51.850;21.698;2022-12-18T02:03:36;101323.61;;;-4.98;78.95
50310;BME280;36207;51.850;21.698;2022-12-18T02:06:13;101324.91;;;-5.01;78.93
50310;BME280;36207;51.850;21.698;2022-12-18T02:09:12;101323.11;;;-5.05;78.93
50310;BME280;36207;51.850;21.698;2022-12-18T02:14:23;101331.41;;;-5.09;78.92
50310;BME280;36207;51.850;21.698;2022-12-18T02:17:18;101338.05;;;-5.05;79.18
50310;BME280;36207;51.850;21.698;2022-12-18T02:20:18;101333.78;;;-5.07;78.90
50310;BME280;36207;51.850;21.698;2022-12-18T02:27:45;101340.09;;;-5.20;78.88
50310;BME280;36207;51.850;21.698;2022-12-18T02:30:13;101349.48;;;-5.21;78.81
50310;BME280;36207;51.850;21.698;2022-12-18T02:32:45;101351.05;;;-5.21;78.74
50310;BME280;36207;51.850;21.698;2022-12-18T02:35:23;101354.96;;;-5.18;78.99
50310;BME280;36207;51.850;21.698;2022-12-18T02:37:54;101363.33;;;-5.13;78.98
50310;BME280;36207;51.850;21.698;2022-12-18T02:40:23;101360.93;;;-5.15;78.92
50310;BME280;36207;51.850;21.698;2022-12-18T02:42:50;101363.70;;;-5.14;79.15
50310;BME280;36207;51.850;21.698;2022-12-18T02:45:17;101365.09;;;-5.14;78.95
50310;BME280;36207;51.850;21.698;2022-12-18T02:47:46;101364.27;;;-5.16;78.94
50310;BME280;36207;51.850;21.698;2022-12-18T02:58:58;101383.88;;;-5.09;79.11
50310;BME280;36207;51.850;21.698;2022-12-18T03:01:33;101387.74;;;-5.11;78.98
50310;BME280;36207;51.850;21.698;2022-12-18T03:04:05;101394.55;;;-5.13;79.01
50310;BME280;36207;51.850;21.698;2022-12-18T03:06:38;101396.90;;;-5.16;78.86
50310;BME280;36207;51.850;21.698;2022-12-18T03:09:19;101398.56;;;-5.19;78.95
50310;BME280;36207;51.850;21.698;2022-12-18T03:11:54;101402.20;;;-5.19;79.08
50310;BME280;36207;51.850;21.698;2022-12-18T03:14:42;101405.65;;;-5.18;79.00
50310;BME280;36207;51.850;21.698;2022-12-18T03:17:13;101407.26;;;-5.20;78.90
50310;BME280;36207;51.850;21.698;2022-12-18T03:19:41;101410.56;;;-5.19;78.96
50310;BME280;36207;51.850;21.698;2022-12-18T03:22:09;101413.48;;;-5.18;79.11
50310;BME280;36207;51.850;21.698;2022-12-18T03:24:36;101414.41;;;-5.20;78.96
50310;BME280;36207;51.850;21.698;2022-12-18T03:27:10;101414.48;;;-5.23;79.05
50310;BME280;36207;51.850;21.698;2022-12-18T03:29:42;101416.75;;;-5.23;78.97
50310;BME280;36207;51.850;21.698;2022-12-18T03:32:12;101419.48;;;-5.22;79.17
50310;BME280;36207;51.850;21.698;2022-12-18T03:34:42;101415.83;;;-5.22;79.22
50310;BME280;36207;51.850;21.698;2022-12-18T03:37:10;101419.98;;;-5.21;79.09
50310;BME280;36207;51.850;21.698;2022-12-18T03:39:36;101427.95;;;-5.20;79.16
50310;BME280;36207;51.850;21.698;2022-12-18T03:42:32;101430.02;;;-5.20;79.12
50310;BME280;36207;51.850;21.698;2022-12-18T03:52:36;101443.42;;;-5.15;79.26
50310;BME280;36207;51.850;21.698;2022-12-18T03:55:05;101451.23;;;-5.15;79.18
50310;BME280;36207;51.850;21.698;2022-12-18T03:57:33;101455.75;;;-5.15;79.24
50310;BME280;36207;51.850;21.698;2022-12-18T04:00:05;101453.67;;;-5.14;79.30
50310;BME280;36207;51.850;21.698;2022-12-18T04:02:33;101459.27;;;-5.10;79.47
50310;BME280;36207;51.850;21.698;2022-12-18T04:05:04;101466.05;;;-5.04;79.52
50310;BME280;36207;51.850;21.698;2022-12-18T04:07:33;101465.66;;;-5.03;79.48
50310;BME280;36207;51.850;21.698;2022-12-18T04:10:01;101464.76;;;-5.02;79.49
50310;BME280;36207;51.850;21.698;2022-12-18T04:12:29;101463.00;;;-5.01;79.44
50310;BME280;36207;51.850;21.698;2022-12-18T04:14:55;101463.64;;;-5.00;79.50
50310;BME280;36207;51.850;21.698;2022-12-18T04:17:22;101461.70;;;-4.99;79.50
50310;BME280;36207;51.850;21.698;2022-12-18T04:19:48;101460.93;;;-4.96;79.50
50310;BME280;36207;51.850;21.698;2022-12-18T04:22:15;101463.55;;;-4.90;79.58
50310;BME280;36207;51.850;21.698;2022-12-18T04:24:41;101466.61;;;-4.88;79.52
50310;BME280;36207;51.850;21.698;2022-12-18T04:27:09;101471.30;;;-4.88;79.42
50310;BME280;36207;51.850;21.698;2022-12-18T04:29:35;101477.09;;;-4.90;79.36
50310;BME280;36207;51.850;21.698;2022-12-18T04:32:01;101474.88;;;-4.91;79.35
50310;BME280;36207;51.850;21.698;2022-12-18T04:34:27;101477.79;;;-4.90;79.41
50310;BME280;36207;51.850;21.698;2022-12-18T04:36:53;101484.80;;;-4.86;79.44
50310;BME280;36207;51.850;21.698;2022-12-18T04:39:20;101483.86;;;-4.84;79.33
50310;BME280;36207;51.850;21.698;2022-12-18T04:41:46;101484.69;;;-4.83;79.37
50310;BME280;36207;51.850;21.698;2022-12-18T04:44:13;101485.75;;;-4.83;79.32
50310;BME280;36207;51.850;21.698;2022-12-18T04:46:39;101493.59;;;-4.84;79.36
50310;BME280;36207;51.850;21.698;2022-12-18T04:49:06;101495.61;;;-4.87;79.22
50310;BME280;36207;51.850;21.698;2022-12-18T04:51:32;101500.89;;;-4.90;78.96
50310;BME280;36207;51.850;21.698;2022-12-18T04:53:58;101498.35;;;-4.92;79.19
50310;BME280;36207;51.850;21.698;2022-12-18T04:56:24;101505.38;;;-4.89;79.16
50310;BME280;36207;51.850;21.698;2022-12-18T04:58:50;101508.98;;;-4.88;79.16
50310;BME280;36207;51.850;21.698;2022-12-18T05:01:20;101517.29;;;-4.87;79.15
50310;BME280;36207;51.850;21.698;2022-12-18T05:03:47;101519.03;;;-4.87;78.92
50310;BME280;36207;51.850;21.698;2022-12-18T05:06:13;101519.77;;;-4.88;78.74
50310;BME280;36207;51.850;21.698;2022-12-18T05:08:40;101523.84;;;-4.90;78.83
50310;BME280;36207;51.850;21.698;2022-12-18T05:11:09;101527.02;;;-4.92;78.69
50310;BME280;36207;51.850;21.698;2022-12-18T05:13:36;101532.39;;;-4.98;78.26
50310;BME280;36207;51.850;21.698;2022-12-18T05:16:05;101541.60;;;-5.05;78.38
50310;BME280;36207;51.850;21.698;2022-12-18T05:18:51;101545.33;;;-5.08;78.51
50310;BME280;36207;51.850;21.698;2022-12-18T05:21:18;101553.81;;;-5.06;78.58
50310;BME280;36207;51.850;21.698;2022-12-18T05:23:44;101556.95;;;-5.07;78.47
50310;BME280;36207;51.850;21.698;2022-12-18T05:26:15;101560.27;;;-5.08;78.42
50310;BME280;36207;51.850;21.698;2022-12-18T05:28:41;101564.88;;;-5.11;78.38
50310;BME280;36207;51.850;21.698;2022-12-18T05:31:09;101569.83;;;-5.15;78.36
50310;BME280;36207;51.850;21.698;2022-12-18T05:33:35;101576.89;;;-5.19;78.48
50310;BME280;36207;51.850;21.698;2022-12-18T05:36:04;101580.72;;;-5.19;78.43
50310;BME280;36207;51.850;21.698;2022-12-18T05:38:33;101585.09;;;-5.21;78.52
50310;BME280;36207;51.850;21.698;2022-12-18T05:40:59;101585.24;;;-5.20;78.64
50310;BME280;36207;51.850;21.698;2022-12-18T05:43:26;101585.66;;;-5.16;78.68
50310;BME280;36207;51.850;21.698;2022-12-18T05:45:53;101592.60;;;-5.16;78.58
50310;BME280;36207;51.850;21.698;2022-12-18T05:48:20;101596.30;;;-5.18;78.54
50310;BME280;36207;51.850;21.698;2022-12-18T05:50:48;101596.52;;;-5.19;78.52
50310;BME280;36207;51.850;21.698;2022-12-18T05:53:17;101597.70;;;-5.24;78.48
50310;BME280;36207;51.850;21.698;2022-12-18T05:55:45;101603.33;;;-5.27;78.36
50310;BME280;36207;51.850;21.698;2022-12-18T05:58:12;101604.90;;;-5.28;78.55
50310;BME280;36207;51.850;21.698;2022-12-18T06:00:43;101610.89;;;-5.25;78.72
50310;BME280;36207;51.850;21.698;2022-12-18T06:03:10;101614.46;;;-5.22;78.69
50310;BME280;36207;51.850;21.698;2022-12-18T06:05:39;101618.74;;;-5.20;78.73
50310;BME280;36207;51.850;21.698;2022-12-18T06:08:06;101625.23;;;-5.22;78.59
50310;BME280;36207;51.850;21.698;2022-12-18T06:10:32;101627.91;;;-5.25;78.43
50310;BME280;36207;51.850;21.698;2022-12-18T06:12:59;101633.72;;;-5.28;78.60
50310;BME280;36207;51.850;21.698;2022-12-18T06:15:25;101636.86;;;-5.28;78.61
50310;BME280;36207;51.850;21.698;2022-12-18T06:17:51;101639.90;;;-5.26;78.63
50310;BME280;36207;51.850;21.698;2022-12-18T06:20:18;101637.07;;;-5.23;78.85
50310;BME280;36207;51.850;21.698;2022-12-18T06:22:44;101641.19;;;-5.22;78.53
50310;BME280;36207;51.850;21.698;2022-12-18T06:25:11;101647.99;;;-5.22;78.62
50310;BME280;36207;51.850;21.698;2022-12-18T06:27:37;101655.20;;;-5.26;78.47
50310;BME280;36207;51.850;21.698;2022-12-18T06:30:05;101664.45;;;-5.28;78.23
50310;BME280;36207;51.850;21.698;2022-12-18T06:32:31;101667.53;;;-5.33;78.37
50310;BME280;36207;51.850;21.698;2022-12-18T06:34:57;101672.95;;;-5.35;78.40
50310;BME280;36207;51.850;21.698;2022-12-18T06:37:23;101676.73;;;-5.33;78.46
50310;BME280;36207;51.850;21.698;2022-12-18T06:39:55;101678.64;;;-5.33;78.26
50310;BME280;36207;51.850;21.698;2022-12-18T06:42:23;101681.85;;;-5.37;78.32
50310;BME280;36207;51.850;21.698;2022-12-18T06:44:49;101686.20;;;-5.37;78.43
50310;BME280;36207;51.850;21.698;2022-12-18T06:47:15;101688.64;;;-5.38;78.25
50310;BME280;36207;51.850;21.698;2022-12-18T06:49:42;101689.77;;;-5.41;78.27
50310;BME280;36207;51.850;21.698;2022-12-18T06:52:09;101695.44;;;-5.46;78.27
50310;BME280;36207;51.850;21.698;2022-12-18T06:54:35;101701.40;;;-5.49;78.18
50310;BME280;36207;51.850;21.698;2022-12-18T06:57:01;101712.17;;;-5.49;78.12
50310;BME280;36207;51.850;21.698;2022-12-18T06:59:27;101716.85;;;-5.48;78.38
50310;BME280;36207;51.850;21.698;2022-12-18T07:01:53;101717.14;;;-5.47;78.41
50310;BME280;36207;51.850;21.698;2022-12-18T07:04:20;101728.59;;;-5.46;78.34
50310;BME280;36207;51.850;21.698;2022-12-18T07:06:46;101728.23;;;-5.46;78.28
50310;BME280;36207;51.850;21.698;2022-12-18T07:09:12;101735.89;;;-5.46;78.28
50310;BME280;36207;51.850;21.698;2022-12-18T07:11:38;101738.74;;;-5.50;78.04
50310;BME280;36207;51.850;21.698;2022-12-18T07:14:04;101747.15;;;-5.53;78.08
50310;BME280;36207;51.850;21.698;2022-12-18T07:16:31;101748.17;;;-5.52;78.20
50310;BME280;36207;51.850;21.698;2022-12-18T07:18:57;101754.14;;;-5.48;78.39
50310;BME280;36207;51.850;21.698;2022-12-18T07:21:24;101756.80;;;-5.43;78.39
50310;BME280;36207;51.850;21.698;2022-12-18T07:23:51;101758.48;;;-5.40;78.29
50310;BME280;36207;51.850;21.698;2022-12-18T07:26:19;101761.23;;;-5.39;78.19
50310;BME280;36207;51.850;21.698;2022-12-18T07:28:47;101764.41;;;-5.41;77.94
50310;BME280;36207;51.850;21.698;2022-12-18T07:31:16;101771.23;;;-5.44;77.99
50310;BME280;36207;51.850;21.698;2022-12-18T07:33:43;101771.65;;;-5.47;77.97
50310;BME280;36207;51.850;21.698;2022-12-18T07:36:10;101770.98;;;-5.48;77.97
50310;BME280;36207;51.850;21.698;2022-12-18T07:38:37;101778.19;;;-5.45;78.15
50310;BME280;36207;51.850;21.698;2022-12-18T07:41:12;101777.40;;;-5.41;78.13
50310;BME280;36207;51.850;21.698;2022-12-18T07:43:40;101786.54;;;-5.37;77.95
50310;BME280;36207;51.850;21.698;2022-12-18T07:46:07;101792.59;;;-5.36;77.96
50310;BME280;36207;51.850;21.698;2022-12-18T07:48:34;101799.30;;;-5.33;77.89
50310;BME280;36207;51.850;21.698;2022-12-18T07:51:02;101798.68;;;-5.37;77.81
50310;BME280;36207;51.850;21.698;2022-12-18T07:53:30;101805.47;;;-5.38;77.92
50310;BME280;36207;51.850;21.698;2022-12-18T07:55:58;101801.15;;;-5.39;77.81
50310;BME280;36207;51.850;21.698;2022-12-18T07:58:25;101802.88;;;-5.39;77.98
50310;BME280;36207;51.850;21.698;2022-12-18T08:00:51;101807.54;;;-5.37;77.89
50310;BME280;36207;51.850;21.698;2022-12-18T08:03:18;101808.45;;;-5.31;78.19
50310;BME280;36207;51.850;21.698;2022-12-18T08:05:45;101814.38;;;-5.24;78.09
50310;BME280;36207;51.850;21.698;2022-12-18T08:08:11;101815.75;;;-5.16;78.18
50310;BME280;36207;51.850;21.698;2022-12-18T08:10:38;101819.08;;;-5.10;78.07
50310;BME280;36207;51.850;21.698;2022-12-18T08:13:05;101827.71;;;-5.07;77.64
50310;BME280;36207;51.850;21.698;2022-12-18T08:15:31;101831.98;;;-5.11;77.42
50310;BME280;36207;51.850;21.698;2022-12-18T08:17:57;101837.00;;;-5.11;77.45
50310;BME280;36207;51.850;21.698;2022-12-18T08:20:23;101844.38;;;-5.15;77.15
50310;BME280;36207;51.850;21.698;2022-12-18T08:22:50;101843.60;;;-5.20;76.99
50310;BME280;36207;51.850;21.698;2022-12-18T08:25:16;101843.14;;;-5.22;77.12
50310;BME280;36207;51.850;21.698;2022-12-18T08:27:42;101847.48;;;-5.22;77.00
50310;BME280;36207;51.850;21.698;2022-12-18T08:30:09;101847.17;;;-5.23;76.62
50310;BME280;36207;51.850;21.698;2022-12-18T08:32:36;101845.86;;;-5.20;76.82
50310;BME280;36207;51.850;21.698;2022-12-18T08:35:02;101853.20;;;-5.14;76.88
50310;BME280;36207;51.850;21.698;2022-12-18T08:37:28;101859.36;;;-5.09;77.06
50310;BME280;36207;51.850;21.698;2022-12-18T08:39:55;101863.24;;;-5.04;76.67
50310;BME280;36207;51.850;21.698;2022-12-18T08:42:21;101866.37;;;-5.04;76.58
50310;BME280;36207;51.850;21.698;2022-12-18T08:45:07;101868.41;;;-5.03;76.55
50310;BME280;36207;51.850;21.698;2022-12-18T08:47:33;101873.27;;;-5.01;76.34
50310;BME280;36207;51.850;21.698;2022-12-18T08:49:59;101873.36;;;-4.99;76.44
50310;BME280;36207;51.850;21.698;2022-12-18T08:52:25;101879.27;;;-4.99;76.10
50310;BME280;36207;51.850;21.698;2022-12-18T08:54:52;101882.34;;;-5.04;75.78
50310;BME280;36207;51.850;21.698;2022-12-18T08:57:18;101883.70;;;-5.10;76.13
50310;BME280;36207;51.850;21.698;2022-12-18T08:59:44;101885.06;;;-5.09;76.52
50310;BME280;36207;51.850;21.698;2022-12-18T09:02:11;101889.16;;;-5.06;76.38
50310;BME280;36207;51.850;21.698;2022-12-18T09:04:37;101896.69;;;-5.01;76.54
50310;BME280;36207;51.850;21.698;2022-12-18T09:07:05;101900.36;;;-4.94;76.64
50310;BME280;36207;51.850;21.698;2022-12-18T09:09:32;101904.27;;;-4.90;76.41
50310;BME280;36207;51.850;21.698;2022-12-18T09:11:58;101903.87;;;-4.87;76.47
50310;BME280;36207;51.850;21.698;2022-12-18T09:14:24;101908.65;;;-4.83;76.58
50310;BME280;36207;51.850;21.698;2022-12-18T09:16:51;101905.79;;;-4.80;76.47
50310;BME280;36207;51.850;21.698;2022-12-18T09:19:17;101900.88;;;-4.78;76.75
50310;BME280;36207;51.850;21.698;2022-12-18T09:21:43;101903.34;;;-4.72;76.62
50310;BME280;36207;51.850;21.698;2022-12-18T09:24:12;101901.70;;;-4.68;76.58
50310;BME280;36207;51.850;21.698;2022-12-18T09:26:39;101909.45;;;-4.65;76.29
50310;BME280;36207;51.850;21.698;2022-12-18T09:29:06;101909.02;;;-4.62;76.41
50310;BME280;36207;51.850;21.698;2022-12-18T09:31:33;101908.41;;;-4.51;76.97
50310;BME280;36207;51.850;21.698;2022-12-18T09:33:59;101913.42;;;-4.35;76.70
50310;BME280;36207;51.850;21.698;2022-12-18T09:36:26;101918.14;;;-4.29;76.61
50310;BME280;36207;51.850;21.698;2022-12-18T09:38:52;101923.28;;;-4.19;76.06
50310;BME280;36207;51.850;21.698;2022-12-18T09:41:51;101924.77;;;-4.16;75.03
50310;BME280;36207;51.850;21.698;2022-12-18T09:44:28;101923.02;;;-4.15;75.99
50310;BME280;36207;51.850;21.698;2022-12-18T09:47:03;101922.49;;;-4.16;75.53
50310;BME280;36207;51.850;21.698;2022-12-18T09:49:42;101930.51;;;-4.23;75.78
50310;BME280;36207;51.850;21.698;2022-12-18T09:52:23;101935.65;;;-4.27;75.35
50310;BME280;36207;51.850;21.698;2022-12-18T09:54:58;101934.09;;;-4.34;75.50
50310;BME280;36207;51.850;21.698;2022-12-18T09:57:26;101930.12;;;-4.35;75.84
50310;BME280;36207;51.850;21.698;2022-12-18T10:00:06;101930.66;;;-4.36;75.68
50310;BME280;36207;51.850;21.698;2022-12-18T10:02:35;101932.81;;;-4.39;75.32
50310;BME280;36207;51.850;21.698;2022-12-18T10:05:13;101936.08;;;-4.44;75.29
50310;BME280;36207;51.850;21.698;2022-12-18T10:16:38;101946.87;;;-4.38;75.34
50310;BME280;36207;51.850;21.698;2022-12-18T10:21:44;101950.92;;;-4.33;75.58
50310;BME280;36207;51.850;21.698;2022-12-18T10:24:52;101948.39;;;-4.29;75.50
50310;BME280;36207;51.850;21.698;2022-12-18T10:27:25;101942.98;;;-4.28;75.59
50310;BME280;36207;51.850;21.698;2022-12-18T10:29:53;101942.65;;;-4.29;75.32
50310;BME280;36207;51.850;21.698;2022-12-18T10:32:30;101945.39;;;-4.27;75.70
50310;BME280;36207;51.850;21.698;2022-12-18T10:34:57;101945.81;;;-4.22;75.47
50310;BME280;36207;51.850;21.698;2022-12-18T10:37:26;101950.98;;;-4.20;75.34
50310;BME280;36207;51.850;21.698;2022-12-18T10:42:35;101953.04;;;-4.12;75.48
50310;BME280;36207;51.850;21.698;2022-12-18T10:45:14;101947.52;;;-4.07;75.43
50310;BME280;36207;51.850;21.698;2022-12-18T10:47:59;101953.27;;;-4.01;75.48
50310;BME280;36207;51.850;21.698;2022-12-18T10:53:02;101962.89;;;-3.89;75.90
50310;BME280;36207;51.850;21.698;2022-12-18T10:55:35;101970.23;;;-3.77;76.03
50310;BME280;36207;51.850;21.698;2022-12-18T11:01:14;101966.27;;;-3.65;75.39
50310;BME280;36207;51.850;21.698;2022-12-18T11:03:42;101963.71;;;-3.67;75.64
50310;BME280;36207;51.850;21.698;2022-12-18T11:06:19;101962.39;;;-3.64;75.43
50310;BME280;36207;51.850;21.698;2022-12-18T11:09:05;101965.20;;;-3.64;75.37
50310;BME280;36207;51.850;21.698;2022-12-18T11:11:32;101962.80;;;-3.66;75.25
50310;BME280;36207;51.850;21.698;2022-12-18T11:14:13;101964.83;;;-3.63;75.41
50310;BME280;36207;51.850;21.698;2022-12-18T11:16:46;101969.27;;;-3.60;75.09
50310;BME280;36207;51.850;21.698;2022-12-18T11:19:33;101970.71;;;-3.61;75.00
50310;BME280;36207;51.850;21.698;2022-12-18T11:22:02;101969.98;;;-3.53;75.52
50310;BME280;36207;51.850;21.698;2022-12-18T11:24:34;101972.84;;;-3.44;75.90
50310;BME280;36207;51.850;21.698;2022-12-18T11:27:03;101975.37;;;-3.34;75.87
50310;BME280;36207;51.850;21.698;2022-12-18T11:29:34;101978.12;;;-3.27;75.89
50310;BME280;36207;51.850;21.698;2022-12-18T11:32:37;101972.93;;;-3.21;75.43
50310;BME280;36207;51.850;21.698;2022-12-18T11:35:17;101974.87;;;-3.28;74.99
50310;BME280;36207;51.850;21.698;2022-12-18T11:37:54;101974.28;;;-3.33;75.30
50310;BME280;36207;51.850;21.698;2022-12-18T11:40:43;101979.42;;;-3.36;75.01
50310;BME280;36207;51.850;21.698;2022-12-18T11:43:18;101982.52;;;-3.41;75.26
50310;BME280;36207;51.850;21.698;2022-12-18T11:46:02;101985.88;;;-3.36;75.39
50310;BME280;36207;51.850;21.698;2022-12-18T11:51:35;101990.00;;;-3.28;75.29
50310;BME280;36207;51.850;21.698;2022-12-18T11:54:12;101988.59;;;-3.27;75.24
50310;BME280;36207;51.850;21.698;2022-12-18T11:56:54;101990.71;;;-3.28;75.23
50310;BME280;36207;51.850;21.698;2022-12-18T11:59:47;101991.86;;;-3.32;75.07
50310;BME280;36207;51.850;21.698;2022-12-18T12:02:47;101990.14;;;-3.39;74.86
50310;BME280;36207;51.850;21.698;2022-12-18T12:05:48;101990.20;;;-3.41;75.17
50310;BME280;36207;51.850;21.698;2022-12-18T12:11:24;102003.40;;;-3.47;75.30
50310;BME280;36207;51.850;21.698;2022-12-18T12:14:20;102002.09;;;-3.44;75.49
50310;BME280;36207;51.850;21.698;2022-12-18T12:16:50;101998.82;;;-3.38;75.23
50310;BME280;36207;51.850;21.698;2022-12-18T12:25:00;102007.55;;;-3.32;75.18
50310;BME280;36207;51.850;21.698;2022-12-18T12:30:32;102015.52;;;-3.31;75.35
50310;BME280;36207;51.850;21.698;2022-12-18T12:33:15;102023.98;;;-3.28;75.36
50310;BME280;36207;51.850;21.698;2022-12-18T12:38:57;102037.15;;;-3.25;75.02
50310;BME280;36207;51.850;21.698;2022-12-18T12:41:27;102046.44;;;-3.28;74.75
50310;BME280;36207;51.850;21.698;2022-12-18T12:44:32;102041.83;;;-3.38;74.69
50310;BME280;36207;51.850;21.698;2022-12-18T12:47:08;102042.17;;;-3.45;74.89
50310;BME280;36207;51.850;21.698;2022-12-18T12:49:37;102043.95;;;-3.46;75.13
50310;BME280;36207;51.850;21.698;2022-12-18T12:52:15;102052.02;;;-3.48;75.21
50310;BME280;36207;51.850;21.698;2022-12-18T12:54:44;102055.59;;;-3.51;75.17
50310;BME280;36207;51.850;21.698;2022-12-18T12:57:37;102053.72;;;-3.53;75.31
50310;BME280;36207;51.850;21.698;2022-12-18T13:00:16;102053.67;;;-3.51;75.45
50310;BME280;36207;51.850;21.698;2022-12-18T13:05:43;102059.79;;;-3.52;75.17
50310;BME280;36207;51.850;21.698;2022-12-18T13:08:33;102061.48;;;-3.50;75.38
50310;BME280;36207;51.850;21.698;2022-12-18T13:11:43;102060.19;;;-3.41;75.62
50310;BME280;36207;51.850;21.698;2022-12-18T13:14:33;102064.27;;;-3.37;74.86
50310;BME280;36207;51.850;21.698;2022-12-18T13:20:04;102061.27;;;-3.42;75.26
50310;BME280;36207;51.850;21.698;2022-12-18T13:22:46;102061.48;;;-3.44;74.89
50310;BME280;36207;51.850;21.698;2022-12-18T13:25:36;102066.40;;;-3.52;74.88
50310;BME280;36207;51.850;21.698;2022-12-18T13:28:18;102070.31;;;-3.55;75.11
50310;BME280;36207;51.850;21.698;2022-12-18T13:30:56;102079.55;;;-3.55;74.80
50310;BME280;36207;51.850;21.698;2022-12-18T13:38:37;102071.94;;;-3.79;74.68
50310;BME280;36207;51.850;21.698;2022-12-18T13:41:25;102080.23;;;-3.84;74.74
50310;BME280;36207;51.850;21.698;2022-12-18T13:43:57;102076.35;;;-3.89;74.75
50310;BME280;36207;51.850;21.698;2022-12-18T13:46:42;102088.70;;;-3.96;74.41
50310;BME280;36207;51.850;21.698;2022-12-18T13:51:53;102093.99;;;-4.15;74.41
50310;BME280;36207;51.850;21.698;2022-12-18T13:54:32;102091.58;;;-4.23;74.62
50310;BME280;36207;51.850;21.698;2022-12-18T13:57:00;102102.45;;;-4.28;74.75
50310;BME280;36207;51.850;21.698;2022-12-18T13:59:34;102108.39;;;-4.29;74.94
50310;BME280;36207;51.850;21.698;2022-12-18T14:04:39;102121.14;;;-4.16;75.04
50310;BME280;36207;51.850;21.698;2022-12-18T14:07:14;102124.00;;;-4.19;74.76
50310;BME280;36207;51.850;21.698;2022-12-18T14:09:47;102122.02;;;-4.24;74.40
50310;BME280;36207;51.850;21.698;2022-12-18T14:12:24;102117.89;;;-4.34;74.63
50310;BME280;36207;51.850;21.698;2022-12-18T14:20:32;102111.37;;;-4.46;75.02
50310;BME280;36207;51.850;21.698;2022-12-18T14:22:59;102114.78;;;-4.52;75.10
50310;BME280;36207;51.850;21.698;2022-12-18T14:25:27;102120.84;;;-4.59;74.96
50310;BME280;36207;51.850;21.698;2022-12-18T14:30:39;102126.76;;;-4.68;75.06
50310;BME280;36207;51.850;21.698;2022-12-18T14:33:09;102132.50;;;-4.68;75.23
50310;BME280;36207;51.850;21.698;2022-12-18T14:35:38;102134.06;;;-4.68;75.20